Time;durP1;ratioP1;P1;durP2;ratioP2;P2;SDS_P1;SDS_P2;PMS_P1;PMS_P2;Temp;Humidity;BMP_temperature;BMP_pressure;BME280_temperature;BME280_humidity;BME280_pressure;Samples;Min_cycle;Max_cycle;Signal;HPM_P1;HPM_P2
2023/01/05 00:01:31;;;;;;;0.00;0.00;;;9.50;35.90;;;;;;5087793;28;20495;-74
2023/01/05 00:03:58;;;;;;;0.08;0.08;;;9.50;1.00;;;;;;5079180;28;20977;-74
2023/01/05 00:06:25;;;;;;;0.00;0.00;;;9.60;1.00;;;;;;5072870;28;20427;-74
2023/01/05 00:08:51;;;;;;;0.00;0.00;;;9.60;1.00;;;;;;5079670;28;21041;-74
2023/01/05 00:22:35;;;;;;;0.00;0.00;;;9.60;1.00;;;;;;5072273;28;20463;-73
2023/01/05 00:25:06;;;;;;;0.00;0.00;;;9.60;1.00;;;;;;5081797;28;20426;-73
2023/01/05 00:27:40;;;;;;;0.00;0.00;;;9.50;3.80;;;;;;5090292;28;20516;-73
2023/01/05 00:30:08;;;;;;;0.00;0.00;;;9.50;51.40;;;;;;5073101;28;20429;-74
2023/01/05 00:32:35;;;;;;;0.10;0.10;;;9.40;91.20;;;;;;5084161;28;20542;-73
2023/01/05 00:35:02;;;;;;;0.00;0.00;;;9.40;99.90;;;;;;5070326;28;20429;-73
2023/01/05 00:37:33;;;;;;;0.00;0.00;;;9.40;99.90;;;;;;5076361;28;20431;-74
2023/01/05 00:40:00;;;;;;;0.00;0.00;;;9.40;99.90;;;;;;5075237;28;20935;-73
2023/01/05 00:42:27;;;;;;;0.00;0.00;;;9.40;99.90;;;;;;5078086;28;20434;-73
2023/01/05 00:44:53;;;;;;;0.00;0.00;;;9.30;99.90;;;;;;5090124;28;20422;-72
2023/01/05 00:47:20;;;;;;;0.10;0.10;;;9.30;99.90;;;;;;5075434;28;20824;-72
2023/01/05 00:49:47;;;;;;;0.30;0.10;;;9.30;99.90;;;;;;5076445;28;20427;-72
2023/01/05 00:52:14;;;;;;;0.10;0.00;;;9.30;99.90;;;;;;5088683;28;20979;-72
2023/01/05 00:54:40;;;;;;;0.00;0.00;;;9.30;99.90;;;;;;5087068;28;20434;-71
2023/01/05 00:57:10;;;;;;;0.10;0.10;;;9.30;99.90;;;;;;5072497;28;20427;-71
2023/01/05 00:59:37;;;;;;;0.10;0.00;;;9.30;99.90;;;;;;5071176;28;20785;-71
2023/01/05 01:02:04;;;;;;;0.38;0.28;;;9.30;99.90;;;;;;5073340;28;20430;-71
2023/01/05 01:04:32;;;;;;;0.00;0.00;;;9.30;99.90;;;;;;5073684;28;20434;-71
2023/01/05 01:06:59;;;;;;;0.00;0.00;;;9.30;99.90;;;;;;5073156;28;21069;-71
2023/01/05 01:09:26;;;;;;;0.00;0.00;;;9.30;99.90;;;;;;5074360;28;20437;-71
2023/01/05 01:11:55;;;;;;;0.00;0.00;;;9.30;99.90;;;;;;5082570;28;20432;-70
2023/01/05 01:14:22;;;;;;;0.40;0.20;;;9.30;99.90;;;;;;5074119;28;20478;-70
2023/01/05 01:16:49;;;;;;;0.00;0.00;;;9.30;99.90;;;;;;5079000;28;21145;-70
2023/01/05 01:19:22;;;;;;;0.20;0.20;;;9.30;99.90;;;;;;5079989;28;20512;-70
2023/01/05 01:21:49;;;;;;;0.00;0.00;;;9.30;99.90;;;;;;5071456;28;20424;-71
2023/01/05 01:24:24;;;;;;;0.08;0.08;;;9.30;99.90;;;;;;5075813;28;20421;-70
2023/01/05 01:26:52;;;;;;;0.00;0.00;;;9.30;99.90;;;;;;5084193;28;20457;-70
2023/01/05 01:29:20;;;;;;;0.00;0.00;;;9.30;99.90;;;;;;5081020;28;20475;-71
2023/01/05 01:31:48;;;;;;;0.00;0.00;;;9.30;99.90;;;;;;5065714;28;20430;-70
2023/01/05 01:34:15;;;;;;;0.00;0.00;;;9.30;99.90;;;;;;5099383;28;20554;-69
2023/01/05 01:36:43;;;;;;;0.00;0.00;;;9.30;99.90;;;;;;5084904;27;20432;-70
2023/01/05 01:39:13;;;;;;;0.10;0.10;;;9.30;99.90;;;;;;5069786;28;20514;-70
2023/01/05 01:41:40;;;;;;;0.00;0.00;;;9.20;99.90;;;;;;5085459;28;20435;-70
2023/01/05 01:44:45;;;;;;;0.00;0.00;;;9.20;99.90;;;;;;5092844;28;20462;-70
2023/01/05 01:47:21;;;;;;;0.00;0.00;;;9.30;99.90;;;;;;5078263;28;21001;-70
2023/01/05 01:49:49;;;;;;;0.10;0.00;;;9.30;99.90;;;;;;5076380;28;20436;-70
2023/01/05 01:52:16;;;;;;;0.00;0.00;;;9.30;99.90;;;;;;5074029;28;21158;-70
2023/01/05 01:54:44;;;;;;;0.10;0.10;;;9.30;99.90;;;;;;5086699;28;20427;-70
2023/01/05 01:57:12;;;;;;;0.00;0.00;;;9.30;99.90;;;;;;5077912;28;20434;-70
2023/01/05 01:59:40;;;;;;;0.10;0.10;;;9.30;99.90;;;;;;5071366;28;20471;-71
2023/01/05 02:02:08;;;;;;;0.00;0.00;;;9.40;99.90;;;;;;5077674;28;20425;-71
2023/01/05 02:04:43;;;;;;;0.00;0.00;;;9.40;99.90;;;;;;5084533;28;20426;-71
2023/01/05 02:07:13;;;;;;;0.10;0.10;;;9.50;99.90;;;;;;5083315;28;21149;-71
2023/01/05 02:09:40;;;;;;;0.00;0.00;;;9.50;99.90;;;;;;5081192;28;20995;-70
2023/01/05 02:12:15;;;;;;;0.00;0.00;;;9.60;99.90;;;;;;5082346;28;20430;-71
2023/01/05 02:15:11;;;;;;;0.00;0.00;;;9.60;99.90;;;;;;5088554;28;20431;-70
2023/01/05 02:18:09;;;;;;;0.10;0.10;;;9.60;99.90;;;;;;5078188;28;20433;-70
2023/01/05 02:20:55;;;;;;;0.00;0.00;;;9.70;99.90;;;;;;5078279;28;20897;-69
2023/01/05 02:23:46;;;;;;;0.10;0.10;;;9.70;99.90;;;;;;5080839;28;20503;-68
2023/01/05 02:26:37;;;;;;;0.00;0.00;;;9.70;99.90;;;;;;5069206;28;21041;-68
2023/01/05 02:29:07;;;;;;;0.00;0.00;;;9.60;99.90;;;;;;5082802;28;20506;-69
2023/01/05 02:31:47;;;;;;;0.00;0.00;;;9.60;99.90;;;;;;5076264;28;20427;-69
2023/01/05 02:34:23;;;;;;;0.00;0.00;;;9.50;99.90;;;;;;5075477;28;20518;-68
2023/01/05 02:36:57;;;;;;;0.23;0.07;;;9.50;99.90;;;;;;5076152;28;20429;-69
2023/01/05 02:39:34;;;;;;;0.20;0.20;;;9.40;99.90;;;;;;5083337;28;20808;-68
2023/01/05 02:42:16;;;;;;;5.60;0.60;;;9.40;99.90;;;;;;5081252;28;20426;-69
2023/01/05 02:44:46;;;;;;;0.00;0.00;;;9.40;99.90;;;;;;5072274;28;20428;-68
2023/01/05 02:47:26;;;;;;;0.00;0.00;;;9.50;99.90;;;;;;5085104;28;20431;-69
2023/01/05 02:50:01;;;;;;;0.20;0.20;;;9.50;99.90;;;;;;5070670;28;20431;-68
2023/01/05 02:52:41;;;;;;;0.00;0.00;;;9.60;99.90;;;;;;5076071;28;20431;-69
2023/01/05 02:55:12;;;;;;;0.20;0.10;;;9.60;55.90;;;;;;5076148;28;20427;-70
2023/01/05 02:58:00;;;;;;;2.60;0.30;;;9.70;1.00;;;;;;5080660;28;20433;-69
2023/01/05 03:00:40;;;;;;;0.60;0.20;;;9.70;99.90;;;;;;5083026;28;21092;-69
2023/01/05 03:03:34;;;;;;;0.20;0.20;;;9.80;99.90;;;;;;5074801;28;20507;-69
2023/01/05 03:06:13;;;;;;;0.10;0.10;;;9.80;99.90;;;;;;5087330;28;20426;-70
2023/01/05 03:08:50;;;;;;;0.30;0.25;;;9.90;99.90;;;;;;5081451;28;20856;-69
2023/01/05 03:14:14;;;;;;;0.10;0.10;;;9.90;99.90;;;;;;5073397;28;20433;-70
2023/01/05 03:16:44;;;;;;;0.10;0.10;;;10.00;99.90;;;;;;5072617;28;20437;-70
2023/01/05 03:36:20;;;;;;;0.50;0.50;;;10.00;99.90;;;;;;5077124;28;20508;-69
2023/01/05 03:38:49;;;;;;;0.27;0.27;;;10.00;99.90;;;;;;5076450;28;20493;-70
2023/01/05 03:41:22;;;;;;;0.10;0.10;;;10.00;99.90;;;;;;5080299;28;20485;-69
2023/01/05 03:43:49;;;;;;;0.30;0.30;;;10.00;99.90;;;;;;5077579;28;20456;-70
2023/01/05 03:46:20;;;;;;;0.10;0.10;;;10.00;99.90;;;;;;5084624;28;20436;-70
2023/01/05 03:48:47;;;;;;;1.67;0.38;;;10.00;99.90;;;;;;5079210;28;20459;-70
2023/01/05 03:51:15;;;;;;;0.30;0.30;;;10.20;99.90;;;;;;5086826;28;20512;-70
2023/01/05 03:53:45;;;;;;;0.20;0.20;;;10.30;99.90;;;;;;5069269;28;20510;-70
2023/01/05 03:56:12;;;;;;;1.00;0.70;;;10.30;99.90;;;;;;5075333;28;20897;-69
2023/01/05 03:58:38;;;;;;;2.80;0.60;;;10.20;99.90;;;;;;5076385;28;20427;-69
2023/01/05 04:01:06;;;;;;;0.10;0.10;;;10.20;99.90;;;;;;5077752;28;20430;-70
2023/01/05 04:03:33;;;;;;;0.50;0.40;;;10.10;99.90;;;;;;5076258;28;20432;-70
2023/01/05 04:06:00;;;;;;;1.30;0.60;;;10.10;99.90;;;;;;5090748;28;20495;-70
2023/01/05 04:08:27;;;;;;;0.30;0.20;;;10.00;99.90;;;;;;5079606;28;20432;-70
2023/01/05 04:10:55;;;;;;;1.38;0.47;;;10.00;99.90;;;;;;5091711;28;20428;-70
2023/01/05 04:13:22;;;;;;;1.92;0.45;;;10.00;99.90;;;;;;5084160;28;20434;-70
2023/01/05 04:15:49;;;;;;;0.28;0.22;;;10.00;99.90;;;;;;5082528;28;20912;-70
2023/01/05 04:18:15;;;;;;;0.30;0.20;;;10.00;99.90;;;;;;5095289;28;21255;-70
2023/01/05 04:20:45;;;;;;;0.20;0.20;;;10.00;99.90;;;;;;5078514;28;20426;-70
2023/01/05 04:23:14;;;;;;;0.20;0.20;;;9.90;99.90;;;;;;5082000;28;20442;-70
2023/01/05 04:25:41;;;;;;;0.10;0.10;;;9.90;99.90;;;;;;5074933;28;20430;-70
2023/01/05 04:28:08;;;;;;;0.50;0.22;;;9.90;99.90;;;;;;5075455;28;20434;-70
2023/01/05 04:30:34;;;;;;;0.20;0.20;;;9.80;99.90;;;;;;5073093;28;20423;-71
2023/01/05 04:33:01;;;;;;;1.10;0.70;;;9.80;99.90;;;;;;5084165;28;20440;-70
2023/01/05 04:35:28;;;;;;;0.80;0.38;;;9.70;99.90;;;;;;5081268;28;20453;-70
2023/01/05 04:37:54;;;;;;;0.68;0.60;;;9.70;99.90;;;;;;5072069;28;20435;-70
2023/01/05 04:40:21;;;;;;;2.70;0.50;;;9.70;99.90;;;;;;5076085;28;20429;-70
2023/01/05 04:42:48;;;;;;;0.30;0.30;;;9.70;99.90;;;;;;5083396;28;20433;-70
2023/01/05 04:45:17;;;;;;;0.20;0.20;;;9.70;99.90;;;;;;5079800;28;20510;-70
2023/01/05 04:47:44;;;;;;;1.60;0.60;;;9.70;99.90;;;;;;5088454;28;20428;-71
2023/01/05 04:50:11;;;;;;;1.80;0.63;;;9.60;99.90;;;;;;5083455;28;20427;-71
2023/01/05 04:52:37;;;;;;;1.90;0.32;;;9.60;99.90;;;;;;5071465;28;20434;-71
2023/01/05 04:55:05;;;;;;;3.10;0.35;;;9.60;99.90;;;;;;5080438;28;20427;-71
2023/01/05 04:57:32;;;;;;;0.20;0.20;;;9.60;99.90;;;;;;5083194;28;20434;-71
2023/01/05 05:00:00;;;;;;;0.20;0.20;;;9.60;99.90;;;;;;5075729;28;20426;-71
2023/01/05 05:02:27;;;;;;;0.20;0.20;;;9.60;99.90;;;;;;5075781;28;20817;-71
2023/01/05 05:04:54;;;;;;;1.90;0.52;;;9.60;99.90;;;;;;5070745;28;20462;-71
2023/01/05 05:07:21;;;;;;;0.20;0.20;;;9.60;99.90;;;;;;5079466;28;20432;-71
2023/01/05 05:09:50;;;;;;;1.40;0.30;;;9.60;99.90;;;;;;5071938;28;20455;-71
2023/01/05 05:12:20;;;;;;;0.73;0.32;;;9.50;99.90;;;;;;5078968;28;20434;-72
2023/01/05 05:14:50;;;;;;;0.20;0.20;;;9.50;99.90;;;;;;5086687;28;20438;-71
2023/01/05 05:17:17;;;;;;;0.25;0.25;;;9.50;99.90;;;;;;5088825;28;20646;-71
2023/01/05 05:19:43;;;;;;;0.10;0.10;;;9.40;99.90;;;;;;5082885;28;20429;-72
2023/01/05 05:22:13;;;;;;;0.40;0.40;;;9.40;99.90;;;;;;5086821;28;20818;-71
2023/01/05 05:24:40;;;;;;;0.50;0.40;;;9.50;99.90;;;;;;5089383;28;20422;-71
2023/01/05 05:27:06;;;;;;;0.50;0.40;;;9.50;99.90;;;;;;5077108;28;20418;-71
2023/01/05 05:29:33;;;;;;;0.95;0.28;;;9.50;99.90;;;;;;5089925;28;20928;-71
2023/01/05 05:32:00;;;;;;;2.53;0.43;;;9.50;99.90;;;;;;5087324;28;20425;-71
2023/01/05 05:34:27;;;;;;;1.40;0.30;;;9.50;99.90;;;;;;5091784;28;20426;-71
2023/01/05 05:36:54;;;;;;;1.70;0.30;;;9.50;99.90;;;;;;5082356;28;20433;-71
2023/01/05 05:39:20;;;;;;;0.40;0.40;;;9.50;99.90;;;;;;5088446;28;20441;-71
2023/01/05 05:41:47;;;;;;;0.20;0.20;;;9.60;99.90;;;;;;5078559;28;20484;-71
2023/01/05 05:44:14;;;;;;;0.50;0.50;;;9.60;99.90;;;;;;5090695;28;20423;-71
2023/01/05 05:46:43;;;;;;;1.00;0.47;;;9.60;99.90;;;;;;5084208;28;20772;-72
2023/01/05 05:49:10;;;;;;;0.20;0.20;;;9.60;99.90;;;;;;5088490;28;20425;-71
2023/01/05 05:51:37;;;;;;;0.10;0.10;;;9.60;99.90;;;;;;5083969;28;20425;-71
2023/01/05 05:54:06;;;;;;;0.30;0.30;;;9.60;99.90;;;;;;5078403;28;20994;-72
2023/01/05 05:56:33;;;;;;;0.60;0.60;;;9.60;99.90;;;;;;5087147;28;20424;-71
2023/01/05 05:59:00;;;;;;;0.20;0.20;;;9.60;99.90;;;;;;5081699;28;20477;-72
2023/01/05 06:01:28;;;;;;;0.50;0.50;;;9.70;99.90;;;;;;5079485;28;20781;-72
2023/01/05 06:03:55;;;;;;;2.90;0.30;;;9.70;99.90;;;;;;5092136;28;20792;-72
2023/01/05 06:06:22;;;;;;;0.70;0.38;;;9.70;99.90;;;;;;5076967;28;20433;-70
2023/01/05 06:08:49;;;;;;;3.35;0.32;;;9.70;99.90;;;;;;5079152;28;20425;-71
2023/01/05 06:11:15;;;;;;;0.20;0.20;;;9.60;99.90;;;;;;5089437;28;20908;-69
2023/01/05 06:13:42;;;;;;;0.60;0.40;;;9.60;99.90;;;;;;5082108;28;20922;-68
2023/01/05 06:16:09;;;;;;;0.20;0.20;;;9.70;99.90;;;;;;5078122;28;20441;-68
2023/01/05 06:18:36;;;;;;;2.70;0.57;;;9.70;99.90;;;;;;5083800;28;20427;-69
2023/01/05 06:21:05;;;;;;;0.28;0.28;;;9.60;99.90;;;;;;5084848;28;20417;-69
2023/01/05 06:23:32;;;;;;;0.40;0.40;;;9.60;99.90;;;;;;5077399;28;20863;-69
2023/01/05 06:25:59;;;;;;;0.20;0.20;;;9.50;99.90;;;;;;5096309;28;20428;-69
2023/01/05 06:28:26;;;;;;;0.30;0.30;;;9.50;99.90;;;;;;5078844;28;20502;-70
2023/01/05 06:30:52;;;;;;;0.28;0.28;;;9.50;99.90;;;;;;5084845;28;21117;-70
2023/01/05 06:33:19;;;;;;;3.40;0.40;;;9.40;99.90;;;;;;5072145;28;20438;-69
2023/01/05 06:35:46;;;;;;;1.85;1.02;;;9.40;99.90;;;;;;5074669;28;20435;-69
2023/01/05 06:38:14;;;;;;;3.63;0.47;;;9.50;99.90;;;;;;5083693;28;20507;-70
2023/01/05 06:40:43;;;;;;;0.20;0.20;;;9.50;99.90;;;;;;5092083;28;20424;-70
2023/01/05 06:43:11;;;;;;;0.20;0.20;;;9.50;99.90;;;;;;5095902;28;20530;-70
2023/01/05 06:45:37;;;;;;;0.40;0.40;;;9.60;99.90;;;;;;5085238;28;21054;-69
2023/01/05 06:48:05;;;;;;;0.17;0.17;;;9.60;99.90;;;;;;5099752;28;20424;-69
2023/01/05 06:50:32;;;;;;;0.40;0.40;;;9.60;99.90;;;;;;5081109;28;20496;-69
2023/01/05 06:52:59;;;;;;;1.10;0.50;;;9.60;99.90;;;;;;5075559;28;20435;-69
2023/01/05 06:55:26;;;;;;;7.25;0.68;;;9.60;99.90;;;;;;5069600;28;20431;-71
2023/01/05 06:57:52;;;;;;;0.65;0.38;;;9.60;99.90;;;;;;5086914;28;20428;-69
2023/01/05 07:00:26;;;;;;;0.32;0.32;;;9.60;99.90;;;;;;5069352;28;20420;-69
2023/01/05 07:02:53;;;;;;;0.50;0.40;;;9.60;99.90;;;;;;5069791;28;20506;-69
2023/01/05 07:05:22;;;;;;;0.20;0.20;;;9.50;99.90;;;;;;5073913;28;20425;-69
2023/01/05 07:07:50;;;;;;;0.60;0.40;;;9.50;99.90;;;;;;5084208;28;20425;-69
2023/01/05 07:10:17;;;;;;;2.60;0.20;;;9.50;99.90;;;;;;5086318;28;20811;-70
2023/01/05 07:12:44;;;;;;;0.40;0.20;;;9.50;99.90;;;;;;5075695;28;20439;-69
2023/01/05 07:15:11;;;;;;;0.17;0.17;;;9.40;99.90;;;;;;5082339;28;20862;-70
2023/01/05 07:17:37;;;;;;;3.80;0.60;;;9.40;99.90;;;;;;5089007;28;20438;-70
2023/01/05 07:20:06;;;;;;;0.28;0.28;;;9.40;99.90;;;;;;5088108;28;21025;-69
2023/01/05 07:22:33;;;;;;;1.07;0.47;;;9.30;99.90;;;;;;5073814;28;20469;-69
2023/01/05 07:25:00;;;;;;;0.15;0.15;;;9.30;99.90;;;;;;5083276;28;20432;-70
2023/01/05 07:27:26;;;;;;;1.70;0.60;;;9.30;99.90;;;;;;5078231;28;20470;-69
2023/01/05 07:29:53;;;;;;;0.50;0.32;;;9.40;99.90;;;;;;5087194;28;20425;-69
2023/01/05 07:32:20;;;;;;;1.50;0.70;;;9.40;99.90;;;;;;5070731;28;20424;-70
2023/01/05 07:34:47;;;;;;;0.20;0.20;;;9.40;99.90;;;;;;5072181;28;20465;-69
2023/01/05 07:37:23;;;;;;;0.10;0.10;;;9.40;99.90;;;;;;5080415;28;20523;-70
2023/01/05 07:39:50;;;;;;;0.40;0.30;;;9.40;99.90;;;;;;5076372;28;20921;-70
2023/01/05 07:42:17;;;;;;;0.20;0.20;;;9.40;99.90;;;;;;5075766;28;20505;-70
2023/01/05 07:44:44;;;;;;;0.70;0.70;;;9.30;99.90;;;;;;5080821;28;20430;-69
2023/01/05 07:47:11;;;;;;;0.10;0.10;;;9.30;99.90;;;;;;5088216;28;20421;-69
2023/01/05 07:49:37;;;;;;;0.50;0.40;;;9.20;99.90;;;;;;5078745;28;22422;-70
2023/01/05 07:52:07;;;;;;;0.22;0.20;;;9.20;99.90;;;;;;5078903;28;20438;-69
2023/01/05 07:54:34;;;;;;;0.20;0.20;;;9.10;99.90;;;;;;5079049;28;20862;-69
2023/01/05 07:57:01;;;;;;;0.20;0.20;;;9.10;99.90;;;;;;5079099;28;20424;-70
2023/01/05 07:59:27;;;;;;;5.50;0.38;;;9.10;99.90;;;;;;5076178;28;20462;-70
2023/01/05 08:01:54;;;;;;;0.10;0.10;;;9.10;99.90;;;;;;5069029;28;20450;-70
2023/01/05 08:04:21;;;;;;;0.70;0.30;;;9.10;99.90;;;;;;5091552;28;20429;-70
2023/01/05 08:06:48;;;;;;;0.10;0.10;;;9.20;99.90;;;;;;5082140;28;20844;-70
2023/01/05 08:12:00;;;;;;;0.30;0.30;;;9.20;99.90;;;;;;5080435;28;20430;-70
2023/01/05 08:14:27;;;;;;;0.60;0.60;;;9.20;99.90;;;;;;5083059;28;20427;-70
2023/01/05 08:16:54;;;;;;;0.40;0.40;;;9.10;99.90;;;;;;5084080;28;20906;-70
2023/01/05 08:19:20;;;;;;;0.20;0.20;;;9.10;99.90;;;;;;5084035;28;20485;-70
2023/01/05 08:21:50;;;;;;;1.52;0.47;;;9.20;99.90;;;;;;5086300;28;20458;-70
2023/01/05 08:24:17;;;;;;;0.30;0.30;;;9.20;99.90;;;;;;5095976;28;20430;-70
2023/01/05 08:26:44;;;;;;;0.27;0.20;;;9.30;99.90;;;;;;5074206;28;20930;-70
2023/01/05 08:29:13;;;;;;;0.20;0.20;;;9.30;99.90;;;;;;5080089;28;20430;-70
2023/01/05 08:31:40;;;;;;;5.80;0.50;;;9.50;99.90;;;;;;5087030;28;20434;-71
2023/01/05 08:34:07;;;;;;;0.40;0.40;;;9.50;99.90;;;;;;5079711;28;20429;-70
2023/01/05 08:36:33;;;;;;;0.10;0.10;;;9.50;99.90;;;;;;5094037;28;20936;-70
2023/01/05 08:39:00;;;;;;;2.50;0.60;;;9.50;99.90;;;;;;5089365;28;20440;-71
2023/01/05 08:41:30;;;;;;;0.20;0.20;;;9.60;99.90;;;;;;5084700;28;20429;-71
2023/01/05 08:44:00;;;;;;;0.17;0.17;;;9.50;99.90;;;;;;5083040;28;20453;-71
2023/01/05 08:46:31;;;;;;;0.30;0.30;;;9.60;99.90;;;;;;5074859;28;20423;-71
2023/01/05 08:49:00;;;;;;;0.20;0.20;;;9.60;99.90;;;;;;5086244;28;20458;-71
2023/01/05 08:51:27;;;;;;;3.70;0.40;;;9.70;99.90;;;;;;5094583;28;20417;-71
2023/01/05 08:53:54;;;;;;;0.20;0.20;;;9.70;99.90;;;;;;5071953;28;20437;-71
2023/01/05 08:56:26;;;;;;;0.20;0.20;;;9.80;99.90;;;;;;5074835;28;20485;-71
2023/01/05 08:58:58;;;;;;;4.20;0.50;;;9.90;99.90;;;;;;5072300;28;20451;-71
2023/01/05 09:01:25;;;;;;;0.15;0.15;;;10.00;99.90;;;;;;5077172;28;20473;-71
2023/01/05 09:03:52;;;;;;;3.40;0.90;;;10.10;99.90;;;;;;5078426;28;20515;-71
2023/01/05 09:06:22;;;;;;;1.98;0.77;;;10.20;99.90;;;;;;5084632;28;20514;-71
2023/01/05 09:08:49;;;;;;;0.30;0.30;;;10.20;99.90;;;;;;5076360;28;20918;-71
2023/01/05 09:11:20;;;;;;;0.50;0.50;;;10.30;99.90;;;;;;5087951;28;20417;-71
2023/01/05 09:13:58;;;;;;;0.50;0.32;;;10.40;99.90;;;;;;5085812;28;20513;-71
2023/01/05 09:16:30;;;;;;;0.25;0.25;;;10.40;99.90;;;;;;5091154;28;20836;-71
2023/01/05 09:19:17;;;;;;;0.30;0.30;;;10.50;99.90;;;;;;5085342;28;20948;-71
2023/01/05 09:21:44;;;;;;;0.50;0.50;;;10.50;99.90;;;;;;5086905;28;21075;-71
2023/01/05 09:24:11;;;;;;;0.40;0.40;;;10.50;99.90;;;;;;5085789;28;20439;-71
2023/01/05 09:26:39;;;;;;;0.73;0.60;;;10.60;99.90;;;;;;5079353;28;21196;-71
2023/01/05 09:29:06;;;;;;;0.50;0.50;;;10.60;99.90;;;;;;5090874;28;20433;-71
2023/01/05 09:31:33;;;;;;;0.30;0.30;;;10.60;99.90;;;;;;5090327;28;20906;-71
2023/01/05 09:34:00;;;;;;;0.15;0.15;;;10.70;99.90;;;;;;5088754;28;20429;-71
2023/01/05 09:36:27;;;;;;;0.37;0.37;;;10.80;99.90;;;;;;5090770;28;20437;-71
2023/01/05 09:38:57;;;;;;;0.28;0.28;;;10.80;99.90;;;;;;5079651;28;20434;-71
2023/01/05 09:41:39;;;;;;;0.28;0.22;;;10.90;99.90;;;;;;5082594;28;20486;-70
2023/01/05 09:44:30;;;;;;;0.85;0.30;;;10.90;99.90;;;;;;5077141;28;20499;-71
2023/01/05 09:47:43;;;;;;;0.20;0.20;;;10.90;99.90;;;;;;5076245;28;20504;-71
2023/01/05 09:50:22;;;;;;;1.70;0.32;;;11.00;99.90;;;;;;5049600;28;20429;-71
2023/01/05 09:52:52;;;;;;;0.20;0.20;;;11.00;99.90;;;;;;5038364;28;20499;-71
2023/01/05 09:55:22;;;;;;;1.80;0.40;;;11.10;99.90;;;;;;5055894;28;20456;-71
2023/01/05 09:58:14;;;;;;;0.30;0.30;;;11.10;99.90;;;;;;5045068;28;20486;-71
2023/01/05 10:00:46;;;;;;;0.43;0.43;;;11.20;99.90;;;;;;5042470;28;20419;-71
2023/01/05 10:03:23;;;;;;;2.85;0.70;;;11.20;99.90;;;;;;5044050;28;20444;-71
2023/01/05 10:06:13;;;;;;;0.22;0.22;;;11.30;99.90;;;;;;5035687;28;20433;-71
2023/01/05 10:08:44;;;;;;;0.60;0.40;;;11.30;99.90;;;;;;5040502;28;20476;-71
2023/01/05 10:14:11;;;;;;;2.60;0.82;;;11.40;99.90;;;;;;5050609;28;20436;-71
2023/01/05 10:16:41;;;;;;;0.57;0.57;;;11.50;99.90;;;;;;5049519;28;20474;-70
2023/01/05 10:19:17;;;;;;;1.23;0.52;;;11.60;99.90;;;;;;5044301;28;20428;-71
2023/01/05 10:21:52;;;;;;;0.10;0.10;;;11.70;99.90;;;;;;5042799;28;21701;-71
2023/01/05 10:24:52;;;;;;;0.40;0.40;;;11.70;99.90;;;;;;5026064;28;20433;-71
2023/01/05 10:27:31;;;;;;;2.80;0.70;;;11.70;99.90;;;;;;5069201;28;20499;-71
2023/01/05 10:30:21;;;;;;;0.17;0.17;;;11.70;99.90;;;;;;5073188;28;20449;-71
2023/01/05 10:33:13;;;;;;;0.20;0.20;;;11.60;99.90;;;;;;5071893;28;20439;-71
2023/01/05 10:36:18;;;;;;;2.05;0.40;;;11.50;99.90;;;;;;5089741;28;20427;-71
2023/01/05 10:39:42;;;;;;;0.50;0.30;;;11.40;99.90;;;;;;5076747;28;20419;-71
2023/01/05 10:42:28;;;;;;;3.00;0.30;;;11.40;99.90;;;;;;5072660;28;20427;-70
2023/01/05 10:45:05;;;;;;;0.20;0.20;;;11.50;99.90;;;;;;5071771;28;20427;-70
2023/01/05 10:47:37;;;;;;;0.20;0.20;;;11.50;99.90;;;;;;5080520;28;22526;-69
2023/01/05 10:50:17;;;;;;;0.40;0.30;;;11.50;99.90;;;;;;5071364;28;20442;-70
2023/01/05 10:52:46;;;;;;;3.10;0.60;;;11.50;99.90;;;;;;5077958;28;20422;-70
2023/01/05 10:55:16;;;;;;;0.70;0.70;;;11.60;99.90;;;;;;5074530;28;20426;-70
2023/01/05 10:57:44;;;;;;;0.15;0.15;;;11.70;99.90;;;;;;5075386;28;20835;-70
2023/01/05 11:00:19;;;;;;;2.55;0.63;;;11.80;99.90;;;;;;5073822;28;20445;-70
2023/01/05 11:02:58;;;;;;;0.40;0.30;;;11.90;99.90;;;;;;5075038;28;20949;-70
2023/01/05 11:05:33;;;;;;;0.30;0.30;;;12.10;99.90;;;;;;5078215;28;20423;-69
2023/01/05 11:08:14;;;;;;;1.10;0.60;;;12.20;99.90;;;;;;5080303;28;20913;-70
2023/01/05 11:10:49;;;;;;;0.60;0.40;;;12.20;99.90;;;;;;5079177;28;20427;-70
2023/01/05 11:13:38;;;;;;;0.32;0.32;;;12.30;99.90;;;;;;5081082;28;20429;-70
2023/01/05 11:16:14;;;;;;;0.40;0.40;;;12.30;99.90;;;;;;5081546;28;20425;-70
2023/01/05 11:18:56;;;;;;;0.27;0.27;;;12.30;99.90;;;;;;5080015;28;20433;-70
2023/01/05 11:21:46;;;;;;;1.10;0.43;;;12.30;99.90;;;;;;5075152;28;20997;-71
2023/01/05 11:24:22;;;;;;;3.87;0.43;;;12.40;99.90;;;;;;5083509;28;20436;-71
2023/01/05 11:26:50;;;;;;;2.28;0.68;;;12.50;99.90;;;;;;5078321;28;20807;-71
2023/01/05 11:29:17;;;;;;;0.85;0.60;;;12.40;99.90;;;;;;5077496;28;20787;-71
2023/01/05 11:31:50;;;;;;;1.30;0.60;;;12.40;99.90;;;;;;5083483;28;20421;-71
2023/01/05 11:34:20;;;;;;;1.00;0.50;;;12.40;99.90;;;;;;5080029;28;20423;-71
2023/01/05 11:36:59;;;;;;;0.20;0.20;;;12.40;99.90;;;;;;5082389;28;20447;-70
2023/01/05 11:39:45;;;;;;;0.30;0.30;;;12.40;99.90;;;;;;5082729;28;20426;-71
2023/01/05 11:42:33;;;;;;;0.40;0.40;;;12.50;99.90;;;;;;5078096;28;20430;-71
2023/01/05 11:45:20;;;;;;;0.90;0.20;;;12.60;99.90;;;;;;5079780;28;20434;-71
2023/01/05 11:47:59;;;;;;;2.70;0.70;;;12.60;99.90;;;;;;5077018;28;20445;-71
2023/01/05 11:50:32;;;;;;;0.10;0.10;;;12.70;99.90;;;;;;5078689;28;20488;-72
2023/01/05 11:53:02;;;;;;;0.60;0.60;;;12.80;99.90;;;;;;5080179;28;20422;-70
2023/01/05 11:55:39;;;;;;;0.90;0.40;;;12.80;99.90;;;;;;5076568;28;20435;-71
2023/01/05 11:58:24;;;;;;;2.80;0.40;;;12.90;99.90;;;;;;5085086;28;20443;-70
2023/01/05 12:00:57;;;;;;;0.40;0.40;;;13.10;99.90;;;;;;5085231;28;20521;-71
2023/01/05 12:03:45;;;;;;;1.10;0.50;;;13.10;99.90;;;;;;5085228;28;20470;-71
2023/01/05 12:06:40;;;;;;;8.75;0.50;;;13.20;99.90;;;;;;5089946;28;20453;-72
2023/01/05 12:09:24;;;;;;;0.50;0.20;;;13.20;99.90;;;;;;5081890;28;20636;-72
2023/01/05 12:12:08;;;;;;;0.60;0.60;;;13.20;99.90;;;;;;5082735;28;20504;-77
2023/01/05 12:15:12;;;;;;;3.70;0.50;;;13.10;99.90;;;;;;5077237;28;20522;-73
2023/01/05 12:17:52;;;;;;;0.40;0.20;;;13.10;99.90;;;;;;5081016;28;20440;-72
2023/01/05 12:20:31;;;;;;;0.60;0.60;;;13.30;99.90;;;;;;5096245;28;20926;-72
2023/01/05 12:23:07;;;;;;;0.60;0.60;;;13.40;99.90;;;;;;5085133;28;20425;-73
2023/01/05 12:26:11;;;;;;;1.70;0.80;;;13.80;99.90;;;;;;5076569;28;20495;-70
2023/01/05 12:28:59;;;;;;;2.55;0.75;;;14.30;99.90;;;;;;5081181;28;20428;-71
2023/01/05 12:32:03;;;;;;;0.68;0.52;;;14.70;99.90;;;;;;5078825;28;20425;-71
2023/01/05 12:35:20;;;;;;;0.43;0.43;;;15.10;99.90;;;;;;5088215;28;20411;-71
2023/01/05 12:38:13;;;;;;;0.20;0.20;;;14.90;99.90;;;;;;5087285;28;20552;-71
2023/01/05 12:41:05;;;;;;;5.00;0.77;;;14.60;99.90;;;;;;5082393;28;20947;-70
2023/01/05 12:44:00;;;;;;;1.10;0.50;;;14.50;99.90;;;;;;5083403;28;20426;-71
2023/01/05 12:46:56;;;;;;;0.20;0.20;;;14.10;99.90;;;;;;5072440;28;20435;-71
2023/01/05 12:49:48;;;;;;;0.50;0.35;;;13.70;99.90;;;;;;5091633;28;20427;-71
2023/01/05 12:52:22;;;;;;;0.20;0.20;;;13.50;99.90;;;;;;5089126;28;20425;-71
2023/01/05 12:54:58;;;;;;;4.10;0.47;;;13.70;99.90;;;;;;5098279;28;20430;-69
2023/01/05 12:57:47;;;;;;;1.50;1.10;;;13.90;99.90;;;;;;5075719;28;20427;-71
2023/01/05 13:00:20;;;;;;;0.30;0.30;;;14.00;99.90;;;;;;5071660;28;20514;-71
2023/01/05 13:02:55;;;;;;;0.55;0.55;;;13.90;99.90;;;;;;5074428;28;20949;-73
2023/01/05 13:05:35;;;;;;;0.50;0.50;;;13.80;99.90;;;;;;5076081;28;20441;-70
2023/01/05 13:08:24;;;;;;;1.00;0.40;;;13.50;99.90;;;;;;5077459;28;20466;-70
2023/01/05 13:11:09;;;;;;;2.60;0.75;;;13.50;99.90;;;;;;5074369;28;20912;-73
2023/01/05 13:13:41;;;;;;;0.40;0.40;;;13.80;99.90;;;;;;5081020;28;20906;-71
2023/01/05 13:16:25;;;;;;;3.80;0.80;;;14.00;99.90;;;;;;5073119;28;20432;-71
2023/01/05 13:19:19;;;;;;;0.20;0.20;;;14.10;99.90;;;;;;5074812;28;20431;-71
2023/01/05 13:21:46;;;;;;;0.33;0.33;;;14.70;99.90;;;;;;5086875;28;20940;-72
2023/01/05 13:24:26;;;;;;;2.70;0.60;;;15.10;99.90;;;;;;5087873;28;20521;-71
2023/01/05 13:26:54;;;;;;;4.70;0.60;;;15.00;99.90;;;;;;5079630;28;20424;-71
2023/01/05 13:29:28;;;;;;;0.45;0.45;;;14.80;99.90;;;;;;5081882;28;20760;-71
2023/01/05 13:31:58;;;;;;;0.10;0.10;;;14.40;99.90;;;;;;5084562;28;20420;-73
2023/01/05 13:34:27;;;;;;;0.30;0.30;;;14.10;99.90;;;;;;5069057;28;21004;-71
2023/01/05 13:37:32;;;;;;;0.20;0.20;;;13.70;99.90;;;;;;5069006;28;20457;-71
2023/01/05 13:40:20;;;;;;;0.30;0.30;;;13.20;99.90;;;;;;5085675;28;21034;-72
2023/01/05 13:43:36;;;;;;;0.30;0.30;;;12.60;99.90;;;;;;5087794;28;20430;-71
2023/01/05 13:46:21;;;;;;;0.17;0.17;;;12.20;99.90;;;;;;5058549;28;20995;-73
2023/01/05 13:49:14;;;;;;;0.30;0.30;;;11.90;99.90;;;;;;5083862;28;20426;-71
2023/01/05 13:51:47;;;;;;;0.47;0.47;;;11.70;99.90;;;;;;5077618;28;20428;-72
2023/01/05 13:54:43;;;;;;;0.47;0.47;;;11.70;99.90;;;;;;5086469;28;20425;-73
2023/01/05 13:57:48;;;;;;;0.50;0.50;;;11.60;99.90;;;;;;5093659;28;20521;-72
2023/01/05 14:00:27;;;;;;;0.20;0.20;;;11.60;99.90;;;;;;5095804;28;20751;-72
2023/01/05 14:03:25;;;;;;;0.20;0.20;;;11.40;99.90;;;;;;5083060;28;20423;-73